Branch, Minnesota
Current Conditions -  °F | °C
As of 3:14 PM on Sunday 23 Nov 2014 (Local Time) from KROS Reporting Station
Overcast Overcast  
Wind Chill: 39°   Ceiling: 3700
Heat Index: 39°   Visibility: 10mi
Dew Point: 37°   Wind: 0mph
Humidity: 93%   Direction: NA
Pressure: 29.38"   Gusts: NA
Location:  45.5343°N, 92.8964°W
Report Text: KROS 232114Z AUTO 00000KT 10SM BKN037 OVC075 04/03 A2938 RMK AO2 T00380027
Loading
Personal Weather Stations






























Interactive Weather Map New forecast layout! Learn more

10-Day Weather Forecast

Advertisements
Track Severe Weather on mobile